createdAt,value
2022-10-08T00:01:22.360Z,2.00
2022-10-08T00:03:53.049Z,2.05
2022-10-08T00:06:22.707Z,1.70
2022-10-08T00:08:58.391Z,1.37
2022-10-08T00:11:27.881Z,1.70
2022-10-08T00:13:55.599Z,1.70
2022-10-08T00:16:25.647Z,1.27
2022-10-08T00:18:54.157Z,1.33
2022-10-08T00:21:24.053Z,1.40
2022-10-08T00:23:52.136Z,1.50
2022-10-08T00:26:23.598Z,1.45
2022-10-08T00:28:51.875Z,1.33
2022-10-08T00:31:22.021Z,1.50
2022-10-08T00:33:54.912Z,1.67
2022-10-08T00:36:23.076Z,1.08
2022-10-08T00:38:54.501Z,1.40
2022-10-08T00:41:24.667Z,1.30
2022-10-08T00:43:54.283Z,1.50
2022-10-08T00:46:49.799Z,1.60
2022-10-08T00:49:22.707Z,1.42
2022-10-08T00:51:55.458Z,1.58
2022-10-08T00:54:23.167Z,1.20
2022-10-08T00:56:53.435Z,1.40
2022-10-08T00:59:20.748Z,1.40
2022-10-08T01:01:47.846Z,1.10
2022-10-08T01:04:15.945Z,1.48
2022-10-08T01:06:45.549Z,1.67
2022-10-08T01:09:20.652Z,1.35
2022-10-08T01:12:07.556Z,1.20
2022-10-08T01:14:55.099Z,1.02
2022-10-08T01:17:49.801Z,1.40
2022-10-08T01:20:40.455Z,1.40
2022-10-08T01:23:31.648Z,1.48
2022-10-08T01:26:24.505Z,1.20
2022-10-08T01:29:01.143Z,1.27
2022-10-08T01:31:37.506Z,1.48
2022-10-08T01:34:15.905Z,1.40
2022-10-08T01:36:49.507Z,1.55
2022-10-08T01:39:19.682Z,1.50
2022-10-08T01:41:52.003Z,1.58
2022-10-08T01:44:34.084Z,1.30
2022-10-08T01:47:05.353Z,1.38
2022-10-08T01:49:39.984Z,1.70
2022-10-08T01:52:11.807Z,1.40
2022-10-08T01:54:43.032Z,1.50
2022-10-08T01:57:11.104Z,1.75
2022-10-08T01:59:46.582Z,1.80
2022-10-08T02:02:24.720Z,1.60
2022-10-08T02:04:53.823Z,1.70
2022-10-08T02:07:36.885Z,2.05
2022-10-08T02:10:11.189Z,2.30
2022-10-08T02:12:40.189Z,2.22
2022-10-08T02:15:16.031Z,2.72
2022-10-08T02:18:20.985Z,2.67
2022-10-08T02:20:55.687Z,2.08
2022-10-08T02:23:59.667Z,2.58
2022-10-08T02:26:35.343Z,2.80
2022-10-08T02:29:23.025Z,3.05
2022-10-08T02:31:59.298Z,2.70
2022-10-08T02:34:35.045Z,3.03
2022-10-08T02:37:04.556Z,3.72
2022-10-08T02:39:34.716Z,3.40
2022-10-08T02:42:06.630Z,3.60
2022-10-08T02:44:40.021Z,3.33
2022-10-08T02:47:10.171Z,3.70
2022-10-08T02:49:44.159Z,4.57
2022-10-08T02:52:11.691Z,3.92
2022-10-08T02:54:42.091Z,3.75
2022-10-08T02:57:35.443Z,4.13
2022-10-08T03:00:03.359Z,4.60
2022-10-08T03:02:52.938Z,4.60
2022-10-08T03:05:20.311Z,4.90
2022-10-08T03:07:50.633Z,4.50
2022-10-08T03:10:19.771Z,4.77
2022-10-08T03:12:47.469Z,4.32
2022-10-08T03:15:14.996Z,4.68
2022-10-08T03:17:46.098Z,3.97
2022-10-08T03:20:13.511Z,4.13
2022-10-08T03:22:40.611Z,4.37
2022-10-08T03:25:07.809Z,3.90
2022-10-08T03:27:35.183Z,4.25
2022-10-08T03:30:02.789Z,4.05
2022-10-08T03:32:29.620Z,3.67
2022-10-08T03:34:56.362Z,3.87
2022-10-08T03:37:22.929Z,3.75
2022-10-08T03:39:49.469Z,3.88
2022-10-08T03:42:16.133Z,3.97
2022-10-08T03:44:42.679Z,4.15
2022-10-08T03:47:09.250Z,4.03
2022-10-08T03:49:35.904Z,3.75
2022-10-08T03:52:02.494Z,3.70
2022-10-08T03:54:29.812Z,3.72
2022-10-08T03:56:56.408Z,3.55
2022-10-08T03:59:22.968Z,3.63
2022-10-08T04:01:49.556Z,3.72
2022-10-08T04:04:16.179Z,3.45
2022-10-08T04:06:42.782Z,3.47
2022-10-08T04:09:10.544Z,3.92
2022-10-08T04:11:37.513Z,3.03
2022-10-08T04:14:04.100Z,3.20
2022-10-08T04:16:31.074Z,3.67
2022-10-08T04:18:57.660Z,3.65
2022-10-08T04:21:24.307Z,3.20
2022-10-08T04:23:51.057Z,3.23
2022-10-08T04:26:18.318Z,3.30
2022-10-08T04:28:45.277Z,3.15
2022-10-08T04:31:16.711Z,3.22
2022-10-08T04:33:44.335Z,3.30
2022-10-08T04:36:19.337Z,3.50
2022-10-08T04:38:46.491Z,2.75
2022-10-08T04:41:15.555Z,2.92
2022-10-08T04:43:43.781Z,2.95
2022-10-08T04:46:12.787Z,2.60
2022-10-08T04:48:40.068Z,2.93
2022-10-08T04:51:10.534Z,2.92
2022-10-08T04:53:37.627Z,3.15
2022-10-08T04:56:28.200Z,3.17
2022-10-08T04:58:55.586Z,2.88
2022-10-08T05:01:22.858Z,3.00
2022-10-08T05:03:51.901Z,2.53
2022-10-08T05:06:21.313Z,2.70
2022-10-08T05:08:48.476Z,2.88
2022-10-08T05:11:16.587Z,3.08
2022-10-08T05:13:43.342Z,3.23
2022-10-08T05:16:13.573Z,3.00
2022-10-08T05:18:41.695Z,2.75
2022-10-08T05:21:11.268Z,3.00
2022-10-08T05:23:38.431Z,3.50
2022-10-08T05:26:12.186Z,2.90
2022-10-08T05:28:38.856Z,3.10
2022-10-08T05:31:05.571Z,2.55
2022-10-08T05:33:32.157Z,3.88
2022-10-08T05:36:03.267Z,3.40
2022-10-08T05:38:34.625Z,3.30
2022-10-08T05:41:18.162Z,2.92
2022-10-08T05:43:45.651Z,3.10
2022-10-08T05:46:12.573Z,3.53
2022-10-08T05:48:40.287Z,3.25
2022-10-08T05:51:09.324Z,3.00
2022-10-08T05:53:37.665Z,3.05
2022-10-08T05:56:06.592Z,2.92
2022-10-08T05:58:35.070Z,3.17
2022-10-08T06:01:04.383Z,3.13
2022-10-08T06:03:31.700Z,2.80
2022-10-08T06:06:07.054Z,2.60
2022-10-08T06:08:35.081Z,2.97
2022-10-08T06:11:03.208Z,3.15
2022-10-08T06:13:29.993Z,2.60
2022-10-08T06:16:07.848Z,2.60
2022-10-08T06:18:37.375Z,2.50
2022-10-08T06:21:05.959Z,2.80
2022-10-08T06:23:32.959Z,2.40
2022-10-08T06:26:04.118Z,2.90
2022-10-08T06:28:31.365Z,2.80
2022-10-08T06:30:59.426Z,2.15
2022-10-08T06:33:26.542Z,2.00
2022-10-08T06:35:53.568Z,2.20
2022-10-08T06:38:20.207Z,1.75
2022-10-08T06:40:46.876Z,2.50
2022-10-08T06:43:20.302Z,2.10
2022-10-08T06:45:47.054Z,2.22
2022-10-08T06:48:13.948Z,2.10
2022-10-08T06:50:41.252Z,1.88
2022-10-08T06:53:10.077Z,1.80
2022-10-08T06:55:37.406Z,1.70
2022-10-08T06:58:05.255Z,1.88
2022-10-08T07:00:32.319Z,1.90
2022-10-08T07:02:58.968Z,1.80
2022-10-08T07:05:25.537Z,1.73
2022-10-08T07:07:52.077Z,2.15
2022-10-08T07:10:18.754Z,2.20
2022-10-08T07:12:45.851Z,1.58
2022-10-08T07:15:12.631Z,1.60
2022-10-08T07:17:39.184Z,1.70
2022-10-08T07:20:06.483Z,1.95
2022-10-08T07:22:33.103Z,1.90
2022-10-08T07:25:01.348Z,1.73
2022-10-08T07:27:28.122Z,1.73
2022-10-08T07:29:54.680Z,1.60
2022-10-08T07:32:21.236Z,1.38
2022-10-08T07:34:47.793Z,1.60
2022-10-08T07:37:14.362Z,1.90
2022-10-08T07:39:40.916Z,1.50
2022-10-08T07:42:07.550Z,1.67
2022-10-08T07:44:34.113Z,1.85
2022-10-08T07:47:00.648Z,1.60
2022-10-08T07:49:27.492Z,1.40
2022-10-08T07:51:54.100Z,1.70
2022-10-08T07:54:20.748Z,1.60
2022-10-08T07:56:47.703Z,1.65
2022-10-08T07:59:15.817Z,1.90
2022-10-08T08:01:43.081Z,1.60
2022-10-08T08:04:11.056Z,1.63
2022-10-08T08:06:43.885Z,1.83
2022-10-08T08:09:11.147Z,1.65
2022-10-08T08:11:37.764Z,1.40
2022-10-08T08:14:04.375Z,1.60
2022-10-08T08:16:31.429Z,1.85
2022-10-08T08:19:01.174Z,1.70
2022-10-08T08:21:33.292Z,1.48
2022-10-08T08:24:04.399Z,2.00
2022-10-08T08:26:33.186Z,1.50
2022-10-08T08:29:02.936Z,1.48
2022-10-08T08:31:38.030Z,1.80
2022-10-08T08:34:10.388Z,1.17
2022-10-08T08:36:39.465Z,1.20
2022-10-08T08:39:08.021Z,1.40
2022-10-08T08:41:51.866Z,1.65
2022-10-08T08:44:42.999Z,1.67
2022-10-08T08:47:40.158Z,1.50
2022-10-08T08:50:38.008Z,1.60
2022-10-08T08:53:05.990Z,1.33
2022-10-08T08:55:42.012Z,1.40
2022-10-08T08:58:40.087Z,1.47
2022-10-08T09:01:09.721Z,1.60
2022-10-08T09:03:43.289Z,1.40
2022-10-08T09:06:17.087Z,1.27
2022-10-08T09:08:51.275Z,1.60
2022-10-08T09:11:20.515Z,1.90
2022-10-08T09:14:32.149Z,1.60
2022-10-08T09:17:03.958Z,1.40
2022-10-08T09:19:31.331Z,1.30
2022-10-08T09:21:57.876Z,1.50
2022-10-08T09:24:25.729Z,1.97
2022-10-08T09:26:53.664Z,1.40
2022-10-08T09:29:33.870Z,1.52
2022-10-08T09:32:00.556Z,1.85
2022-10-08T09:34:27.222Z,1.85
2022-10-08T09:37:03.149Z,1.97
2022-10-08T09:39:32.606Z,1.58
2022-10-08T09:42:08.472Z,1.45
2022-10-08T09:44:42.789Z,1.70
2022-10-08T09:47:13.093Z,1.60
2022-10-08T09:49:39.909Z,1.80
2022-10-08T09:52:20.135Z,1.77
2022-10-08T09:54:51.643Z,1.75
2022-10-08T09:57:20.997Z,1.65
2022-10-08T09:59:57.712Z,1.40
2022-10-08T10:02:34.880Z,1.87
2022-10-08T10:05:05.380Z,1.63
2022-10-08T10:07:44.551Z,1.38
2022-10-08T10:10:35.779Z,1.60
2022-10-08T10:13:09.685Z,1.83
2022-10-08T10:15:48.696Z,1.80
2022-10-08T10:18:19.144Z,1.75
2022-10-08T10:21:05.930Z,1.75
2022-10-08T10:23:46.723Z,1.70
2022-10-08T10:26:21.797Z,1.65
2022-10-08T10:28:57.280Z,1.70
2022-10-08T10:31:47.707Z,1.85
2022-10-08T10:34:29.296Z,1.75
2022-10-08T10:37:01.292Z,1.35
2022-10-08T10:39:38.501Z,1.58
2022-10-08T10:42:26.483Z,1.47
2022-10-08T10:44:57.616Z,1.45
2022-10-08T10:47:31.823Z,1.55
2022-10-08T10:50:01.081Z,1.67
2022-10-08T10:52:51.069Z,1.98
2022-10-08T10:55:20.424Z,1.83
2022-10-08T10:57:52.800Z,1.50
2022-10-08T11:00:46.232Z,2.05
2022-10-08T11:03:22.078Z,1.63
2022-10-08T11:05:57.541Z,1.63
2022-10-08T11:08:33.159Z,1.60
2022-10-08T11:11:43.505Z,2.25
2022-10-08T11:14:27.982Z,1.58
2022-10-08T11:17:00.954Z,1.63
2022-10-08T11:19:57.309Z,1.65
2022-10-08T11:22:47.313Z,1.80
2022-10-08T11:25:55.213Z,1.60
2022-10-08T11:28:56.377Z,1.73
2022-10-08T11:31:43.519Z,1.90
2022-10-08T11:34:36.856Z,1.52
2022-10-08T11:37:24.676Z,1.50
2022-10-08T11:40:06.679Z,1.83
2022-10-08T11:42:49.065Z,1.73
2022-10-08T11:45:24.805Z,1.92
2022-10-08T11:47:55.911Z,1.85
2022-10-08T11:50:26.222Z,1.60
2022-10-08T11:52:56.671Z,1.70
2022-10-08T11:55:28.807Z,2.00
2022-10-08T11:58:08.721Z,1.55
2022-10-08T12:00:44.846Z,1.80
2022-10-08T12:03:29.999Z,1.70
2022-10-08T12:06:25.059Z,1.88
2022-10-08T12:09:05.766Z,1.52
2022-10-08T12:11:32.297Z,1.50
2022-10-08T12:14:10.972Z,1.80
2022-10-08T12:16:56.105Z,1.70
2022-10-08T12:19:34.823Z,1.83
2022-10-08T12:22:04.247Z,1.67
2022-10-08T12:24:36.906Z,1.90
2022-10-08T12:27:31.446Z,1.75
2022-10-08T12:30:10.470Z,2.10
2022-10-08T12:32:39.883Z,2.13
2022-10-08T12:35:20.315Z,2.05
2022-10-08T12:38:05.076Z,2.10
2022-10-08T12:40:46.918Z,1.92
2022-10-08T12:43:28.714Z,2.17
2022-10-08T12:46:29.557Z,2.17
2022-10-08T12:49:21.412Z,1.70
2022-10-08T12:52:00.624Z,2.17
2022-10-08T12:54:29.631Z,1.95
2022-10-08T12:56:57.185Z,2.37
2022-10-08T12:59:26.482Z,2.00
2022-10-08T13:01:54.428Z,1.90
2022-10-08T13:04:28.112Z,1.52
2022-10-08T13:06:55.651Z,1.85
2022-10-08T13:09:34.024Z,1.40
2022-10-08T13:12:05.688Z,1.77
2022-10-08T13:14:39.372Z,2.03
2022-10-08T13:17:06.597Z,1.50
2022-10-08T13:19:36.568Z,2.13
2022-10-08T13:22:07.261Z,1.77
2022-10-08T13:24:40.303Z,1.80
2022-10-08T13:27:22.168Z,1.77
2022-10-08T13:29:48.788Z,1.90
2022-10-08T13:32:15.962Z,2.17
2022-10-08T13:34:46.453Z,1.60
2022-10-08T13:37:23.987Z,1.80
2022-10-08T13:39:59.188Z,1.60
2022-10-08T13:42:34.397Z,1.60
2022-10-08T13:45:04.064Z,1.80
2022-10-08T13:47:30.731Z,2.20
2022-10-08T13:50:01.774Z,1.70
2022-10-08T13:52:30.917Z,1.42
2022-10-08T13:55:01.192Z,1.60
2022-10-08T13:57:27.853Z,1.77
2022-10-08T13:59:54.438Z,1.83
2022-10-08T14:02:21.104Z,1.58
2022-10-08T14:04:47.772Z,1.85
2022-10-08T14:07:29.948Z,1.52
2022-10-08T14:09:59.541Z,1.48
2022-10-08T14:12:29.966Z,1.80
2022-10-08T14:14:57.400Z,1.85
2022-10-08T14:17:24.138Z,1.77
2022-10-08T14:19:51.540Z,1.40
2022-10-08T14:22:18.876Z,1.40
2022-10-08T14:24:45.540Z,1.50
2022-10-08T14:27:12.110Z,1.80
2022-10-08T14:29:38.675Z,1.70
2022-10-08T14:32:07.863Z,1.50
2022-10-08T14:34:35.467Z,1.60
2022-10-08T14:37:02.846Z,1.60
2022-10-08T14:39:29.561Z,1.77
2022-10-08T14:41:56.127Z,1.25
2022-10-08T14:44:22.678Z,1.80
2022-10-08T14:46:51.893Z,1.27
2022-10-08T14:49:18.939Z,1.53
2022-10-08T14:51:46.460Z,1.52
2022-10-08T14:54:13.197Z,1.27
2022-10-08T14:56:41.704Z,1.52
2022-10-08T14:59:09.132Z,1.88
2022-10-08T15:01:36.670Z,1.83
2022-10-08T15:04:04.534Z,1.35
2022-10-08T15:06:31.556Z,1.70
2022-10-08T15:08:58.236Z,1.60
2022-10-08T15:11:24.849Z,1.65
2022-10-08T15:13:53.588Z,1.70
2022-10-08T15:16:20.295Z,1.70
2022-10-08T15:18:47.345Z,1.70
2022-10-08T15:21:14.142Z,1.70
2022-10-08T15:23:40.753Z,1.60
2022-10-08T15:26:10.816Z,1.37
2022-10-08T15:28:38.321Z,1.98
2022-10-08T15:31:13.868Z,1.95
2022-10-08T15:33:42.655Z,1.55
2022-10-08T15:36:22.078Z,1.70
2022-10-08T15:38:57.688Z,1.60
2022-10-08T15:41:25.602Z,1.60
2022-10-08T15:43:52.856Z,1.70
2022-10-08T15:46:20.882Z,1.88
2022-10-08T15:48:53.074Z,1.73
2022-10-08T15:51:20.808Z,1.63
2022-10-08T15:53:47.795Z,1.63
2022-10-08T15:56:14.383Z,1.70
2022-10-08T15:58:56.288Z,2.08
2022-10-08T16:01:23.678Z,1.95
2022-10-08T16:03:52.286Z,1.73
2022-10-08T16:06:24.780Z,1.80
2022-10-08T16:08:51.417Z,1.52
2022-10-08T16:11:24.283Z,1.63
2022-10-08T16:13:58.787Z,1.55
2022-10-08T16:16:25.461Z,1.40
2022-10-08T16:18:57.957Z,1.98
2022-10-08T16:21:24.949Z,1.88
2022-10-08T16:23:51.634Z,1.95
2022-10-08T16:26:22.513Z,1.50
2022-10-08T16:28:56.816Z,1.60
2022-10-08T16:31:25.509Z,1.67
2022-10-08T16:34:04.336Z,1.45
2022-10-08T16:36:33.810Z,1.92
2022-10-08T16:39:01.073Z,1.83
2022-10-08T16:41:29.687Z,1.90
2022-10-08T16:43:58.751Z,2.05
2022-10-08T16:46:32.180Z,1.67
2022-10-08T16:49:05.583Z,2.13
2022-10-08T16:51:34.883Z,1.80
2022-10-08T16:54:02.553Z,2.00
2022-10-08T16:56:32.705Z,1.65
2022-10-08T16:59:01.597Z,1.83
2022-10-08T17:01:28.576Z,1.70
2022-10-08T17:03:55.744Z,1.60
2022-10-08T17:06:24.304Z,1.60
2022-10-08T17:08:51.742Z,2.25
2022-10-08T17:11:18.789Z,1.60
2022-10-08T17:13:48.969Z,1.60
2022-10-08T17:16:17.563Z,1.63
2022-10-08T17:18:44.588Z,1.67
2022-10-08T17:21:13.501Z,2.10
2022-10-08T17:23:40.229Z,2.08
2022-10-08T17:26:10.547Z,1.80
2022-10-08T17:28:39.878Z,1.92
2022-10-08T17:31:09.441Z,1.60
2022-10-08T17:33:36.370Z,2.08
2022-10-08T17:36:15.218Z,2.15
2022-10-08T17:38:43.618Z,2.45
2022-10-08T17:41:45.560Z,2.58
2022-10-08T17:44:13.018Z,2.10
2022-10-08T17:46:45.936Z,2.85
2022-10-08T17:49:17.872Z,2.53
2022-10-08T17:51:44.920Z,2.83
2022-10-08T17:54:18.259Z,2.45
2022-10-08T17:56:45.364Z,2.47
2022-10-08T17:59:17.072Z,2.40
2022-10-08T18:01:45.510Z,3.00
2022-10-08T18:04:14.371Z,3.03
2022-10-08T18:06:42.627Z,3.03
2022-10-08T18:09:12.733Z,3.40
2022-10-08T18:11:43.362Z,3.80
2022-10-08T18:14:10.461Z,3.90
2022-10-08T18:16:37.073Z,3.22
2022-10-08T18:19:08.536Z,2.70
2022-10-08T18:21:35.270Z,2.17
2022-10-08T18:24:01.939Z,2.10
2022-10-08T18:26:32.207Z,2.78
2022-10-08T18:29:00.526Z,2.13
2022-10-08T18:31:29.228Z,2.28
2022-10-08T18:33:58.423Z,2.33
2022-10-08T18:36:26.972Z,2.15
2022-10-08T18:38:59.039Z,2.22
2022-10-08T18:41:30.285Z,2.70
2022-10-08T18:43:59.127Z,2.03
2022-10-08T18:46:25.802Z,2.30
2022-10-08T18:48:52.446Z,2.35
2022-10-08T18:51:22.201Z,2.55
2022-10-08T18:53:49.931Z,2.50
2022-10-08T18:56:20.270Z,2.63
2022-10-08T18:58:47.292Z,2.30
2022-10-08T19:01:22.912Z,3.03
2022-10-08T19:03:52.700Z,2.80
2022-10-08T19:06:21.828Z,2.47
2022-10-08T19:08:48.832Z,2.85
2022-10-08T19:11:27.104Z,2.63
2022-10-08T19:13:54.566Z,2.30
2022-10-08T19:16:21.903Z,2.78
2022-10-08T19:18:55.404Z,2.58
2022-10-08T19:21:24.200Z,2.35
2022-10-08T19:23:51.200Z,2.60
2022-10-08T19:26:18.142Z,3.20
2022-10-08T19:28:47.052Z,2.20
2022-10-08T19:31:18.250Z,3.28
2022-10-08T19:33:52.759Z,2.92
2022-10-08T19:36:20.156Z,2.70
2022-10-08T19:38:54.306Z,2.75
2022-10-08T19:41:21.772Z,2.53
2022-10-08T19:43:48.335Z,2.53
2022-10-08T19:46:15.221Z,3.25
2022-10-08T19:48:41.861Z,2.80
2022-10-08T19:51:10.760Z,2.75
2022-10-08T19:53:38.359Z,2.50
2022-10-08T19:56:09.891Z,2.42
2022-10-08T19:58:45.009Z,3.22
2022-10-08T20:01:16.641Z,3.00
2022-10-08T20:03:43.388Z,2.92
2022-10-08T20:06:13.066Z,3.28
2022-10-08T20:08:40.055Z,3.33
2022-10-08T20:11:15.038Z,2.90
2022-10-08T20:13:43.295Z,2.63
2022-10-08T20:16:13.584Z,2.65
2022-10-08T20:18:40.236Z,2.75
2022-10-08T20:21:09.964Z,2.65
2022-10-08T20:23:37.355Z,2.85
2022-10-08T20:26:21.724Z,2.50
2022-10-08T20:28:51.105Z,2.28
2022-10-08T20:31:25.789Z,2.70
2022-10-08T20:33:58.067Z,2.80
2022-10-08T20:36:25.553Z,2.10
2022-10-08T20:38:52.534Z,2.53
2022-10-08T20:41:19.840Z,2.83
2022-10-08T20:43:47.000Z,2.95
2022-10-08T20:46:15.382Z,2.70
2022-10-08T20:48:43.885Z,2.88
2022-10-08T20:51:19.924Z,2.53
2022-10-08T20:53:48.205Z,2.92
2022-10-08T20:56:15.270Z,3.00
2022-10-08T20:58:41.952Z,2.65
2022-10-08T21:01:17.361Z,2.72
2022-10-08T21:03:45.270Z,3.00
2022-10-08T21:06:18.137Z,2.47
2022-10-08T21:08:47.979Z,2.90
2022-10-08T21:11:17.592Z,3.28
2022-10-08T21:13:44.665Z,2.85
2022-10-08T21:16:18.680Z,2.53
2022-10-08T21:18:49.590Z,2.95
2022-10-08T21:21:16.884Z,2.90
2022-10-08T21:23:43.955Z,3.15
2022-10-08T21:26:23.804Z,2.80
2022-10-08T21:28:53.357Z,2.93
2022-10-08T21:31:21.069Z,2.58
2022-10-08T21:33:49.637Z,2.88
2022-10-08T21:36:20.163Z,3.53
2022-10-08T21:38:46.987Z,3.15
2022-10-08T21:41:15.867Z,2.83
2022-10-08T21:43:44.899Z,2.70
2022-10-08T21:46:14.385Z,3.00
2022-10-08T21:48:41.747Z,3.70
2022-10-08T21:51:14.172Z,3.08
2022-10-08T21:53:45.446Z,3.20
2022-10-08T21:56:14.265Z,2.90
2022-10-08T21:58:42.976Z,3.00
2022-10-08T22:01:21.913Z,3.35
2022-10-08T22:03:48.937Z,3.17
2022-10-08T22:06:15.487Z,2.97
2022-10-08T22:08:42.074Z,3.63
2022-10-08T22:11:08.748Z,3.55
2022-10-08T22:13:35.303Z,2.95
2022-10-08T22:16:04.802Z,3.58
2022-10-08T22:18:33.123Z,3.20
2022-10-08T22:21:04.739Z,3.05
2022-10-08T22:23:31.706Z,3.00
2022-10-08T22:26:04.122Z,3.30
2022-10-08T22:28:31.452Z,3.13
2022-10-08T22:31:02.164Z,3.17
2022-10-08T22:33:29.860Z,3.33
2022-10-08T22:36:01.096Z,3.47
2022-10-08T22:38:27.728Z,3.28
2022-10-08T22:41:11.609Z,3.50
2022-10-08T22:43:39.662Z,3.27
2022-10-08T22:46:09.155Z,3.15
2022-10-08T22:48:36.273Z,3.67
2022-10-08T22:51:04.183Z,3.75
2022-10-08T22:53:31.404Z,3.60
2022-10-08T22:55:58.458Z,3.83
2022-10-08T22:58:25.698Z,3.33
2022-10-08T23:01:06.877Z,3.33
2022-10-08T23:03:34.347Z,3.05
2022-10-08T23:06:08.609Z,3.05
2022-10-08T23:08:36.136Z,3.00
2022-10-08T23:11:05.005Z,3.17
2022-10-08T23:13:32.399Z,3.15
2022-10-08T23:16:06.542Z,2.70
2022-10-08T23:18:35.842Z,3.33
2022-10-08T23:21:07.695Z,2.87
2022-10-08T23:23:34.947Z,3.25
2022-10-08T23:26:03.785Z,3.47
2022-10-08T23:28:31.705Z,3.65
2022-10-08T23:31:25.790Z,3.50
2022-10-08T23:33:53.456Z,3.10
2022-10-08T23:36:31.742Z,3.10
2022-10-08T23:38:58.528Z,2.90
2022-10-08T23:41:25.825Z,3.25
2022-10-08T23:43:53.917Z,4.07
2022-10-08T23:46:23.089Z,3.27
2022-10-08T23:48:51.358Z,2.72
2022-10-08T23:51:19.681Z,2.85
2022-10-08T23:53:47.109Z,2.65
2022-10-08T23:56:14.600Z,2.65
2022-10-08T23:58:41.659Z,2.67
